sensor_id;sensor_type;location;lat;lon;timestamp;temperature;humidity
27314;DHT22;14800;48.174;9.798;2023-03-01T00:02:20;2.20;73.40
27314;DHT22;14800;48.174;9.798;2023-03-01T00:04:45;2.20;73.40
27314;DHT22;14800;48.174;9.798;2023-03-01T00:07:12;2.20;73.40
27314;DHT22;14800;48.174;9.798;2023-03-01T00:09:38;2.20;73.80
27314;DHT22;14800;48.174;9.798;2023-03-01T00:12:05;2.20;73.50
27314;DHT22;14800;48.174;9.798;2023-03-01T00:14:31;2.10;73.50
27314;DHT22;14800;48.174;9.798;2023-03-01T00:16:56;2.20;73.60
27314;DHT22;14800;48.174;9.798;2023-03-01T00:19:22;2.20;73.60
27314;DHT22;14800;48.174;9.798;2023-03-01T00:21:48;2.10;73.50
27314;DHT22;14800;48.174;9.798;2023-03-01T00:24:14;2.10;73.50
27314;DHT22;14800;48.174;9.798;2023-03-01T00:26:40;2.10;73.60
27314;DHT22;14800;48.174;9.798;2023-03-01T00:29:06;2.10;73.60
27314;DHT22;14800;48.174;9.798;2023-03-01T00:31:32;2.10;73.60
27314;DHT22;14800;48.174;9.798;2023-03-01T00:34:01;2.10;73.80
27314;DHT22;14800;48.174;9.798;2023-03-01T00:36:29;2.10;74.00
27314;DHT22;14800;48.174;9.798;2023-03-01T00:38:55;2.10;74.00
27314;DHT22;14800;48.174;9.798;2023-03-01T00:41:21;2.00;73.80
27314;DHT22;14800;48.174;9.798;2023-03-01T00:43:48;2.00;74.00
27314;DHT22;14800;48.174;9.798;2023-03-01T00:46:19;2.00;74.00
27314;DHT22;14800;48.174;9.798;2023-03-01T00:48:46;2.00;74.10
27314;DHT22;14800;48.174;9.798;2023-03-01T00:51:12;2.00;74.10
27314;DHT22;14800;48.174;9.798;2023-03-01T00:53:38;2.00;74.30
27314;DHT22;14800;48.174;9.798;2023-03-01T00:56:06;2.00;74.40
27314;DHT22;14800;48.174;9.798;2023-03-01T00:58:32;2.00;74.40
27314;DHT22;14800;48.174;9.798;2023-03-01T01:00:58;2.00;74.50
27314;DHT22;14800;48.174;9.798;2023-03-01T01:03:24;2.00;74.60
27314;DHT22;14800;48.174;9.798;2023-03-01T01:05:52;2.00;74.50
27314;DHT22;14800;48.174;9.798;2023-03-01T01:08:19;2.00;74.60
27314;DHT22;14800;48.174;9.798;2023-03-01T01:10:46;2.00;74.50
27314;DHT22;14800;48.174;9.798;2023-03-01T01:13:12;2.00;74.60
27314;DHT22;14800;48.174;9.798;2023-03-01T01:15:38;2.00;74.70
27314;DHT22;14800;48.174;9.798;2023-03-01T01:18:04;2.10;74.60
27314;DHT22;14800;48.174;9.798;2023-03-01T01:20:30;2.00;74.60
27314;DHT22;14800;48.174;9.798;2023-03-01T01:22:56;2.00;74.60
27314;DHT22;14800;48.174;9.798;2023-03-01T01:25:21;2.10;74.70
27314;DHT22;14800;48.174;9.798;2023-03-01T01:27:50;2.00;74.70
27314;DHT22;14800;48.174;9.798;2023-03-01T01:30:16;2.10;74.70
27314;DHT22;14800;48.174;9.798;2023-03-01T01:32:41;2.10;74.80
27314;DHT22;14800;48.174;9.798;2023-03-01T01:35:07;2.10;74.80
27314;DHT22;14800;48.174;9.798;2023-03-01T01:37:33;2.10;74.80
27314;DHT22;14800;48.174;9.798;2023-03-01T01:39:59;2.10;75.00
27314;DHT22;14800;48.174;9.798;2023-03-01T01:42:25;2.10;74.80
27314;DHT22;14800;48.174;9.798;2023-03-01T01:45:27;2.20;75.00
27314;DHT22;14800;48.174;9.798;2023-03-01T01:47:57;2.10;76.20
27314;DHT22;14800;48.174;9.798;2023-03-01T01:50:23;2.10;74.90
27314;DHT22;14800;48.174;9.798;2023-03-01T01:52:50;2.10;74.90
27314;DHT22;14800;48.174;9.798;2023-03-01T01:55:23;2.10;75.00
27314;DHT22;14800;48.174;9.798;2023-03-01T01:57:56;2.10;75.10
27314;DHT22;14800;48.174;9.798;2023-03-01T02:00:26;2.10;75.20
27314;DHT22;14800;48.174;9.798;2023-03-01T02:02:55;2.10;75.20
27314;DHT22;14800;48.174;9.798;2023-03-01T02:05:33;2.00;75.20
27314;DHT22;14800;48.174;9.798;2023-03-01T02:08:00;2.10;75.30
27314;DHT22;14800;48.174;9.798;2023-03-01T02:10:27;2.10;75.20
27314;DHT22;14800;48.174;9.798;2023-03-01T02:12:53;2.00;75.10
27314;DHT22;14800;48.174;9.798;2023-03-01T02:15:19;2.00;75.30
27314;DHT22;14800;48.174;9.798;2023-03-01T02:17:45;2.00;75.30
27314;DHT22;14800;48.174;9.798;2023-03-01T02:22:39;2.00;75.40
27314;DHT22;14800;48.174;9.798;2023-03-01T02:30:47;2.10;75.90
27314;DHT22;14800;48.174;9.798;2023-03-01T02:33:34;2.00;75.50
27314;DHT22;14800;48.174;9.798;2023-03-01T02:36:03;2.00;75.30
27314;DHT22;14800;48.174;9.798;2023-03-01T02:38:31;2.00;75.50
27314;DHT22;14800;48.174;9.798;2023-03-01T02:40:57;2.10;75.60
27314;DHT22;14800;48.174;9.798;2023-03-01T02:43:26;2.10;75.70
27314;DHT22;14800;48.174;9.798;2023-03-01T02:45:54;2.00;75.50
27314;DHT22;14800;48.174;9.798;2023-03-01T02:48:22;2.10;75.50
27314;DHT22;14800;48.174;9.798;2023-03-01T02:54:27;2.10;75.70
27314;DHT22;14800;48.174;9.798;2023-03-01T02:56:21;2.10;75.70
27314;DHT22;14800;48.174;9.798;2023-03-01T02:58:47;2.10;75.60
27314;DHT22;14800;48.174;9.798;2023-03-01T03:01:19;2.10;75.50
27314;DHT22;14800;48.174;9.798;2023-03-01T03:03:45;2.10;75.60
27314;DHT22;14800;48.174;9.798;2023-03-01T03:06:11;2.10;75.50
27314;DHT22;14800;48.174;9.798;2023-03-01T03:08:37;2.10;75.60
27314;DHT22;14800;48.174;9.798;2023-03-01T03:11:02;2.10;75.50
27314;DHT22;14800;48.174;9.798;2023-03-01T03:13:28;2.10;75.50
27314;DHT22;14800;48.174;9.798;2023-03-01T03:15:55;2.10;75.50
27314;DHT22;14800;48.174;9.798;2023-03-01T03:18:22;2.10;75.60
27314;DHT22;14800;48.174;9.798;2023-03-01T03:20:48;2.10;75.50
27314;DHT22;14800;48.174;9.798;2023-03-01T03:23:18;2.20;75.60
27314;DHT22;14800;48.174;9.798;2023-03-01T03:25:44;2.10;75.60
27314;DHT22;14800;48.174;9.798;2023-03-01T03:28:10;2.10;75.50
27314;DHT22;14800;48.174;9.798;2023-03-01T03:30:38;2.10;75.60
27314;DHT22;14800;48.174;9.798;2023-03-01T03:33:05;2.10;75.60
27314;DHT22;14800;48.174;9.798;2023-03-01T03:35:39;2.10;75.60
27314;DHT22;14800;48.174;9.798;2023-03-01T03:38:07;2.10;75.70
27314;DHT22;14800;48.174;9.798;2023-03-01T03:40:38;2.10;75.60
27314;DHT22;14800;48.174;9.798;2023-03-01T03:43:16;2.10;75.60
27314;DHT22;14800;48.174;9.798;2023-03-01T03:45:44;2.10;76.40
27314;DHT22;14800;48.174;9.798;2023-03-01T03:48:10;2.10;75.60
27314;DHT22;14800;48.174;9.798;2023-03-01T03:50:38;2.10;75.70
27314;DHT22;14800;48.174;9.798;2023-03-01T03:53:06;2.10;75.70
27314;DHT22;14800;48.174;9.798;2023-03-01T03:55:32;2.10;75.70
27314;DHT22;14800;48.174;9.798;2023-03-01T03:58:00;2.10;75.90
27314;DHT22;14800;48.174;9.798;2023-03-01T04:00:33;2.10;75.90
27314;DHT22;14800;48.174;9.798;2023-03-01T04:02:59;2.10;75.80
27314;DHT22;14800;48.174;9.798;2023-03-01T04:05:24;2.10;75.70
27314;DHT22;14800;48.174;9.798;2023-03-01T04:07:50;2.10;75.90
27314;DHT22;14800;48.174;9.798;2023-03-01T04:10:27;2.10;75.80
27314;DHT22;14800;48.174;9.798;2023-03-01T04:12:52;2.20;75.80
27314;DHT22;14800;48.174;9.798;2023-03-01T04:15:18;2.20;75.90
27314;DHT22;14800;48.174;9.798;2023-03-01T04:17:45;2.20;75.90
27314;DHT22;14800;48.174;9.798;2023-03-01T04:20:17;2.20;75.80
27314;DHT22;14800;48.174;9.798;2023-03-01T04:22:44;2.20;75.70
27314;DHT22;14800;48.174;9.798;2023-03-01T04:25:13;2.20;75.70
27314;DHT22;14800;48.174;9.798;2023-03-01T04:27:40;2.20;75.70
27314;DHT22;14800;48.174;9.798;2023-03-01T04:30:06;2.20;75.70
27314;DHT22;14800;48.174;9.798;2023-03-01T04:32:32;2.20;75.70
27314;DHT22;14800;48.174;9.798;2023-03-01T04:34:58;2.20;75.60
27314;DHT22;14800;48.174;9.798;2023-03-01T04:37:24;2.20;75.50
27314;DHT22;14800;48.174;9.798;2023-03-01T04:39:50;2.20;75.50
27314;DHT22;14800;48.174;9.798;2023-03-01T04:42:16;2.20;75.50
27314;DHT22;14800;48.174;9.798;2023-03-01T04:44:42;2.20;75.50
27314;DHT22;14800;48.174;9.798;2023-03-01T04:47:08;2.20;75.50
27314;DHT22;14800;48.174;9.798;2023-03-01T04:49:34;2.20;75.70
27314;DHT22;14800;48.174;9.798;2023-03-01T04:51:59;2.30;75.60
27314;DHT22;14800;48.174;9.798;2023-03-01T04:54:28;2.30;75.50
27314;DHT22;14800;48.174;9.798;2023-03-01T04:56:54;2.30;75.60
27314;DHT22;14800;48.174;9.798;2023-03-01T04:59:20;2.20;75.50
27314;DHT22;14800;48.174;9.798;2023-03-01T05:01:51;2.30;75.50
27314;DHT22;14800;48.174;9.798;2023-03-01T05:04:17;2.30;75.50
27314;DHT22;14800;48.174;9.798;2023-03-01T05:06:43;2.30;75.50
27314;DHT22;14800;48.174;9.798;2023-03-01T05:09:10;2.30;75.50
27314;DHT22;14800;48.174;9.798;2023-03-01T05:11:37;2.30;75.50
27314;DHT22;14800;48.174;9.798;2023-03-01T05:14:03;2.30;75.50
27314;DHT22;14800;48.174;9.798;2023-03-01T05:16:29;2.30;75.50
27314;DHT22;14800;48.174;9.798;2023-03-01T05:18:56;2.30;75.50
27314;DHT22;14800;48.174;9.798;2023-03-01T05:21:22;2.30;75.50
27314;DHT22;14800;48.174;9.798;2023-03-01T05:23:48;2.30;75.50
27314;DHT22;14800;48.174;9.798;2023-03-01T05:26:14;2.30;75.50
27314;DHT22;14800;48.174;9.798;2023-03-01T05:28:40;2.30;75.50
27314;DHT22;14800;48.174;9.798;2023-03-01T05:31:06;2.40;75.50
27314;DHT22;14800;48.174;9.798;2023-03-01T05:33:38;2.40;76.30
27314;DHT22;14800;48.174;9.798;2023-03-01T05:36:06;2.40;75.40
27314;DHT22;14800;48.174;9.798;2023-03-01T05:38:33;2.40;75.40
27314;DHT22;14800;48.174;9.798;2023-03-01T05:40:58;2.40;75.30
27314;DHT22;14800;48.174;9.798;2023-03-01T05:43:24;2.40;75.30
27314;DHT22;14800;48.174;9.798;2023-03-01T05:45:50;2.40;75.30
27314;DHT22;14800;48.174;9.798;2023-03-01T05:48:16;2.40;75.30
27314;DHT22;14800;48.174;9.798;2023-03-01T05:50:45;2.50;75.30
27314;DHT22;14800;48.174;9.798;2023-03-01T05:53:18;2.50;75.20
27314;DHT22;14800;48.174;9.798;2023-03-01T05:55:44;2.40;75.20
27314;DHT22;14800;48.174;9.798;2023-03-01T05:58:14;2.50;75.20
27314;DHT22;14800;48.174;9.798;2023-03-01T06:00:41;2.40;75.20
27314;DHT22;14800;48.174;9.798;2023-03-01T06:03:10;2.40;75.20
27314;DHT22;14800;48.174;9.798;2023-03-01T06:05:36;2.40;75.20
27314;DHT22;14800;48.174;9.798;2023-03-01T06:08:02;2.40;75.20
27314;DHT22;14800;48.174;9.798;2023-03-01T06:10:28;2.40;75.20
27314;DHT22;14800;48.174;9.798;2023-03-01T06:12:53;2.40;75.20
27314;DHT22;14800;48.174;9.798;2023-03-01T06:15:19;2.40;75.30
27314;DHT22;14800;48.174;9.798;2023-03-01T06:17:46;2.40;75.30
27314;DHT22;14800;48.174;9.798;2023-03-01T06:20:17;2.40;75.30
27314;DHT22;14800;48.174;9.798;2023-03-01T06:22:44;2.40;75.30
27314;DHT22;14800;48.174;9.798;2023-03-01T06:25:11;2.40;75.30
27314;DHT22;14800;48.174;9.798;2023-03-01T06:27:38;2.40;75.30
27314;DHT22;14800;48.174;9.798;2023-03-01T06:30:04;2.40;75.30
27314;DHT22;14800;48.174;9.798;2023-03-01T06:32:30;2.40;75.20
27314;DHT22;14800;48.174;9.798;2023-03-01T06:34:56;2.40;75.30
27314;DHT22;14800;48.174;9.798;2023-03-01T06:37:24;2.40;75.40
27314;DHT22;14800;48.174;9.798;2023-03-01T06:39:49;2.40;75.30
27314;DHT22;14800;48.174;9.798;2023-03-01T06:42:15;2.30;75.30
27314;DHT22;14800;48.174;9.798;2023-03-01T06:44:41;2.30;75.50
27314;DHT22;14800;48.174;9.798;2023-03-01T06:47:06;2.30;75.60
27314;DHT22;14800;48.174;9.798;2023-03-01T06:49:32;2.30;75.60
27314;DHT22;14800;48.174;9.798;2023-03-01T06:51:57;2.40;75.70
27314;DHT22;14800;48.174;9.798;2023-03-01T06:54:23;2.30;75.70
27314;DHT22;14800;48.174;9.798;2023-03-01T06:56:50;2.40;75.80
27314;DHT22;14800;48.174;9.798;2023-03-01T06:59:16;2.30;75.70
27314;DHT22;14800;48.174;9.798;2023-03-01T07:01:42;2.30;75.70
27314;DHT22;14800;48.174;9.798;2023-03-01T07:04:09;2.40;75.70
27314;DHT22;14800;48.174;9.798;2023-03-01T07:06:34;2.30;75.70
27314;DHT22;14800;48.174;9.798;2023-03-01T07:09:00;2.30;75.70
27314;DHT22;14800;48.174;9.798;2023-03-01T07:11:25;2.40;75.80
27314;DHT22;14800;48.174;9.798;2023-03-01T07:13:51;2.30;75.70
27314;DHT22;14800;48.174;9.798;2023-03-01T07:16:17;2.30;75.70
27314;DHT22;14800;48.174;9.798;2023-03-01T07:18:43;2.30;75.60
27314;DHT22;14800;48.174;9.798;2023-03-01T07:21:09;2.30;75.50
27314;DHT22;14800;48.174;9.798;2023-03-01T07:23:36;2.30;75.30
27314;DHT22;14800;48.174;9.798;2023-03-01T07:26:02;2.30;75.30
27314;DHT22;14800;48.174;9.798;2023-03-01T07:28:28;2.30;75.30
27314;DHT22;14800;48.174;9.798;2023-03-01T07:30:54;2.30;75.30
27314;DHT22;14800;48.174;9.798;2023-03-01T07:33:20;2.30;75.30
27314;DHT22;14800;48.174;9.798;2023-03-01T07:35:46;2.30;75.30
27314;DHT22;14800;48.174;9.798;2023-03-01T07:38:11;2.30;75.20
27314;DHT22;14800;48.174;9.798;2023-03-01T07:40:37;2.20;75.20
27314;DHT22;14800;48.174;9.798;2023-03-01T07:43:03;2.20;75.10
27314;DHT22;14800;48.174;9.798;2023-03-01T07:45:28;2.30;75.20
27314;DHT22;14800;48.174;9.798;2023-03-01T07:47:55;2.20;75.10
27314;DHT22;14800;48.174;9.798;2023-03-01T07:50:22;2.30;75.20
27314;DHT22;14800;48.174;9.798;2023-03-01T07:52:49;2.20;75.20
27314;DHT22;14800;48.174;9.798;2023-03-01T07:55:16;2.20;75.20
27314;DHT22;14800;48.174;9.798;2023-03-01T07:57:42;2.20;75.20
27314;DHT22;14800;48.174;9.798;2023-03-01T08:00:10;2.30;75.20
27314;DHT22;14800;48.174;9.798;2023-03-01T08:02:36;2.30;75.30
27314;DHT22;14800;48.174;9.798;2023-03-01T08:05:02;2.30;75.30
27314;DHT22;14800;48.174;9.798;2023-03-01T08:07:27;2.30;75.30
27314;DHT22;14800;48.174;9.798;2023-03-01T08:09:53;2.30;75.30
27314;DHT22;14800;48.174;9.798;2023-03-01T08:12:18;2.30;75.30
27314;DHT22;14800;48.174;9.798;2023-03-01T08:14:44;2.30;75.20
27314;DHT22;14800;48.174;9.798;2023-03-01T08:17:10;2.40;75.20
27314;DHT22;14800;48.174;9.798;2023-03-01T08:19:35;2.40;75.00
27314;DHT22;14800;48.174;9.798;2023-03-01T08:22:01;2.40;75.10
27314;DHT22;14800;48.174;9.798;2023-03-01T08:24:28;2.40;75.10
27314;DHT22;14800;48.174;9.798;2023-03-01T08:26:53;2.40;75.00
27314;DHT22;14800;48.174;9.798;2023-03-01T08:29:19;2.50;75.10
27314;DHT22;14800;48.174;9.798;2023-03-01T08:31:45;2.50;75.00
27314;DHT22;14800;48.174;9.798;2023-03-01T08:34:13;2.50;74.90
27314;DHT22;14800;48.174;9.798;2023-03-01T08:36:41;2.50;74.80
27314;DHT22;14800;48.174;9.798;2023-03-01T08:39:08;2.60;74.90
27314;DHT22;14800;48.174;9.798;2023-03-01T08:41:34;2.60;74.90
27314;DHT22;14800;48.174;9.798;2023-03-01T08:43:59;2.70;74.90
27314;DHT22;14800;48.174;9.798;2023-03-01T08:46:30;2.70;74.80
27314;DHT22;14800;48.174;9.798;2023-03-01T08:48:56;2.70;74.80
27314;DHT22;14800;48.174;9.798;2023-03-01T08:51:23;2.70;74.80
27314;DHT22;14800;48.174;9.798;2023-03-01T08:53:49;2.70;74.50
27314;DHT22;14800;48.174;9.798;2023-03-01T08:56:16;2.80;74.50
27314;DHT22;14800;48.174;9.798;2023-03-01T08:58:46;2.80;74.40
27314;DHT22;14800;48.174;9.798;2023-03-01T09:01:15;2.80;74.30
27314;DHT22;14800;48.174;9.798;2023-03-01T09:03:41;2.90;74.50
27314;DHT22;14800;48.174;9.798;2023-03-01T09:06:07;2.90;74.30
27314;DHT22;14800;48.174;9.798;2023-03-01T09:08:37;2.90;74.00
27314;DHT22;14800;48.174;9.798;2023-03-01T09:11:04;2.90;73.90
27314;DHT22;14800;48.174;9.798;2023-03-01T09:13:30;3.00;74.00
27314;DHT22;14800;48.174;9.798;2023-03-01T09:15:57;3.00;74.00
27314;DHT22;14800;48.174;9.798;2023-03-01T09:18:23;3.00;74.00
27314;DHT22;14800;48.174;9.798;2023-03-01T09:20:49;3.00;74.00
27314;DHT22;14800;48.174;9.798;2023-03-01T09:23:14;3.10;73.90
27314;DHT22;14800;48.174;9.798;2023-03-01T09:25:40;3.10;73.70
27314;DHT22;14800;48.174;9.798;2023-03-01T09:28:05;3.10;73.60
27314;DHT22;14800;48.174;9.798;2023-03-01T09:30:31;3.10;73.70
27314;DHT22;14800;48.174;9.798;2023-03-01T09:32:57;3.10;73.70
27314;DHT22;14800;48.174;9.798;2023-03-01T09:35:22;3.10;73.60
27314;DHT22;14800;48.174;9.798;2023-03-01T09:37:48;3.10;73.60
27314;DHT22;14800;48.174;9.798;2023-03-01T09:40:18;3.20;73.60
27314;DHT22;14800;48.174;9.798;2023-03-01T09:42:52;3.20;73.40
27314;DHT22;14800;48.174;9.798;2023-03-01T09:45:41;3.20;73.30
27314;DHT22;14800;48.174;9.798;2023-03-01T09:48:15;3.20;73.40
27314;DHT22;14800;48.174;9.798;2023-03-01T09:50:42;3.20;73.50
27314;DHT22;14800;48.174;9.798;2023-03-01T09:53:16;3.20;73.60
27314;DHT22;14800;48.174;9.798;2023-03-01T10:06:58;3.30;73.50
27314;DHT22;14800;48.174;9.798;2023-03-01T10:09:29;3.30;73.50
27314;DHT22;14800;48.174;9.798;2023-03-01T10:11:57;3.30;74.30
27314;DHT22;14800;48.174;9.798;2023-03-01T10:23:19;3.40;73.20
27314;DHT22;14800;48.174;9.798;2023-03-01T10:28:41;3.40;73.30
27314;DHT22;14800;48.174;9.798;2023-03-01T10:31:19;3.40;73.40
27314;DHT22;14800;48.174;9.798;2023-03-01T10:33:45;3.40;73.20
27314;DHT22;14800;48.174;9.798;2023-03-01T10:36:13;3.40;73.30
27314;DHT22;14800;48.174;9.798;2023-03-01T10:38:54;3.50;73.40
27314;DHT22;14800;48.174;9.798;2023-03-01T10:41:21;3.50;73.40
27314;DHT22;14800;48.174;9.798;2023-03-01T10:43:55;3.50;73.30
27314;DHT22;14800;48.174;9.798;2023-03-01T10:49:13;3.50;73.10
27314;DHT22;14800;48.174;9.798;2023-03-01T10:51:40;3.60;73.10
27314;DHT22;14800;48.174;9.798;2023-03-01T10:54:17;3.60;73.10
27314;DHT22;14800;48.174;9.798;2023-03-01T10:56:54;3.60;72.90
27314;DHT22;14800;48.174;9.798;2023-03-01T10:59:29;3.60;73.00
27314;DHT22;14800;48.174;9.798;2023-03-01T11:04:39;3.70;72.90
27314;DHT22;14800;48.174;9.798;2023-03-01T11:07:05;3.70;72.90
27314;DHT22;14800;48.174;9.798;2023-03-01T11:09:32;3.70;72.90
27314;DHT22;14800;48.174;9.798;2023-03-01T11:12:08;3.80;73.10
27314;DHT22;14800;48.174;9.798;2023-03-01T11:14:39;3.80;72.90
27314;DHT22;14800;48.174;9.798;2023-03-01T11:17:34;3.80;72.90
27314;DHT22;14800;48.174;9.798;2023-03-01T11:20:20;3.90;72.90
27314;DHT22;14800;48.174;9.798;2023-03-01T11:22:57;3.90;72.80
27314;DHT22;14800;48.174;9.798;2023-03-01T11:25:36;3.90;72.60
27314;DHT22;14800;48.174;9.798;2023-03-01T11:28:05;4.00;72.70
27314;DHT22;14800;48.174;9.798;2023-03-01T11:30:37;4.00;72.70
27314;DHT22;14800;48.174;9.798;2023-03-01T11:38:43;4.10;72.60
27314;DHT22;14800;48.174;9.798;2023-03-01T11:41:27;4.10;72.40
27314;DHT22;14800;48.174;9.798;2023-03-01T11:44:16;4.20;72.20
27314;DHT22;14800;48.174;9.798;2023-03-01T12:05:18;4.30;72.00
27314;DHT22;14800;48.174;9.798;2023-03-01T12:10:27;4.40;71.90
27314;DHT22;14800;48.174;9.798;2023-03-01T12:18:46;4.50;72.00
27314;DHT22;14800;48.174;9.798;2023-03-01T12:27:30;4.70;72.20
27314;DHT22;14800;48.174;9.798;2023-03-01T12:49:37;5.30;71.10
27314;DHT22;14800;48.174;9.798;2023-03-01T12:52:41;5.40;71.30
27314;DHT22;14800;48.174;9.798;2023-03-01T13:11:42;5.70;69.90
27314;DHT22;14800;48.174;9.798;2023-03-01T13:16:46;5.70;69.20
27314;DHT22;14800;48.174;9.798;2023-03-01T13:21:47;5.70;69.60
27314;DHT22;14800;48.174;9.798;2023-03-01T13:24:38;5.80;69.50
27314;DHT22;14800;48.174;9.798;2023-03-01T13:32:37;5.80;69.80
27314;DHT22;14800;48.174;9.798;2023-03-01T13:37:44;5.90;69.70
27314;DHT22;14800;48.174;9.798;2023-03-01T13:42:49;6.00;70.00
27314;DHT22;14800;48.174;9.798;2023-03-01T13:45:38;6.10;70.10
27314;DHT22;14800;48.174;9.798;2023-03-01T13:48:23;6.20;69.90
27314;DHT22;14800;48.174;9.798;2023-03-01T13:51:00;6.30;69.60
27314;DHT22;14800;48.174;9.798;2023-03-01T13:53:31;6.30;69.50
27314;DHT22;14800;48.174;9.798;2023-03-01T13:56:09;6.40;69.60
27314;DHT22;14800;48.174;9.798;2023-03-01T14:01:42;6.50;69.20
27314;DHT22;14800;48.174;9.798;2023-03-01T14:04:23;6.60;69.30
27314;DHT22;14800;48.174;9.798;2023-03-01T14:06:51;6.70;68.90
27314;DHT22;14800;48.174;9.798;2023-03-01T14:09:22;6.70;69.20
27314;DHT22;14800;48.174;9.798;2023-03-01T14:14:42;6.90;68.90
27314;DHT22;14800;48.174;9.798;2023-03-01T14:19:59;6.90;68.30
27314;DHT22;14800;48.174;9.798;2023-03-01T14:22:30;7.00;68.50
27314;DHT22;14800;48.174;9.798;2023-03-01T14:24:58;7.00;68.50
27314;DHT22;14800;48.174;9.798;2023-03-01T14:27:27;7.10;68.70
27314;DHT22;14800;48.174;9.798;2023-03-01T14:29:58;7.10;68.40
27314;DHT22;14800;48.174;9.798;2023-03-01T14:32:29;7.20;68.40
27314;DHT22;14800;48.174;9.798;2023-03-01T14:34:57;7.20;68.20
27314;DHT22;14800;48.174;9.798;2023-03-01T14:37:29;7.30;68.10
27314;DHT22;14800;48.174;9.798;2023-03-01T14:39:56;7.30;68.00
27314;DHT22;14800;48.174;9.798;2023-03-01T14:42:24;7.40;68.10
27314;DHT22;14800;48.174;9.798;2023-03-01T14:44:52;7.40;68.00
27314;DHT22;14800;48.174;9.798;2023-03-01T14:47:37;7.40;67.80
27314;DHT22;14800;48.174;9.798;2023-03-01T14:50:05;7.40;67.10
27314;DHT22;14800;48.174;9.798;2023-03-01T14:52:38;7.50;67.80
27314;DHT22;14800;48.174;9.798;2023-03-01T14:55:09;7.40;67.40
27314;DHT22;14800;48.174;9.798;2023-03-01T14:57:43;7.40;67.20
27314;DHT22;14800;48.174;9.798;2023-03-01T15:00:17;7.40;67.20
27314;DHT22;14800;48.174;9.798;2023-03-01T15:02:44;7.30;67.00
27314;DHT22;14800;48.174;9.798;2023-03-01T15:05:13;7.30;67.30
27314;DHT22;14800;48.174;9.798;2023-03-01T15:07:40;7.30;67.30
27314;DHT22;14800;48.174;9.798;2023-03-01T15:10:17;7.30;67.40
27314;DHT22;14800;48.174;9.798;2023-03-01T15:12:44;7.30;67.10
27314;DHT22;14800;48.174;9.798;2023-03-01T15:17:53;7.40;67.10
27314;DHT22;14800;48.174;9.798;2023-03-01T15:20:21;7.40;67.30
27314;DHT22;14800;48.174;9.798;2023-03-01T15:22:51;7.40;67.40
27314;DHT22;14800;48.174;9.798;2023-03-01T15:25:18;7.40;67.50
27314;DHT22;14800;48.174;9.798;2023-03-01T15:27:46;7.40;67.30
27314;DHT22;14800;48.174;9.798;2023-03-01T15:30:25;7.40;67.10
27314;DHT22;14800;48.174;9.798;2023-03-01T15:33:25;7.50;66.60
27314;DHT22;14800;48.174;9.798;2023-03-01T15:35:58;7.50;66.00
27314;DHT22;14800;48.174;9.798;2023-03-01T15:38:36;7.50;66.90
27314;DHT22;14800;48.174;9.798;2023-03-01T15:41:37;7.50;66.90
27314;DHT22;14800;48.174;9.798;2023-03-01T15:44:26;7.50;66.40
27314;DHT22;14800;48.174;9.798;2023-03-01T15:46:52;7.50;66.20
27314;DHT22;14800;48.174;9.798;2023-03-01T15:49:33;7.50;66.70
27314;DHT22;14800;48.174;9.798;2023-03-01T15:52:00;7.50;66.30
27314;DHT22;14800;48.174;9.798;2023-03-01T15:54:26;7.50;66.60
27314;DHT22;14800;48.174;9.798;2023-03-01T15:56:53;7.50;66.60
27314;DHT22;14800;48.174;9.798;2023-03-01T15:59:19;7.50;66.60
27314;DHT22;14800;48.174;9.798;2023-03-01T16:01:45;7.50;66.40
27314;DHT22;14800;48.174;9.798;2023-03-01T16:04:12;7.50;66.40
27314;DHT22;14800;48.174;9.798;2023-03-01T16:06:41;7.50;66.30
27314;DHT22;14800;48.174;9.798;2023-03-01T16:09:07;7.50;66.20
27314;DHT22;14800;48.174;9.798;2023-03-01T16:11:34;7.40;66.10
27314;DHT22;14800;48.174;9.798;2023-03-01T16:14:02;7.40;66.00
27314;DHT22;14800;48.174;9.798;2023-03-01T16:16:28;7.40;66.10
27314;DHT22;14800;48.174;9.798;2023-03-01T16:18:53;7.30;66.00
27314;DHT22;14800;48.174;9.798;2023-03-01T16:21:23;7.30;66.50
27314;DHT22;14800;48.174;9.798;2023-03-01T16:23:49;7.30;66.20
27314;DHT22;14800;48.174;9.798;2023-03-01T16:26:16;7.30;66.40
27314;DHT22;14800;48.174;9.798;2023-03-01T16:28:43;7.30;66.50
27314;DHT22;14800;48.174;9.798;2023-03-01T16:31:09;7.30;66.60
27314;DHT22;14800;48.174;9.798;2023-03-01T16:33:35;7.30;66.70
27314;DHT22;14800;48.174;9.798;2023-03-01T16:36:07;7.30;66.90
27314;DHT22;14800;48.174;9.798;2023-03-01T16:38:32;7.30;66.90
27314;DHT22;14800;48.174;9.798;2023-03-01T16:40:59;7.20;67.10
27314;DHT22;14800;48.174;9.798;2023-03-01T16:43:25;7.20;67.10
27314;DHT22;14800;48.174;9.798;2023-03-01T16:45:54;7.20;67.10
27314;DHT22;14800;48.174;9.798;2023-03-01T16:48:19;7.20;67.10
27314;DHT22;14800;48.174;9.798;2023-03-01T16:50:45;7.20;67.10
27314;DHT22;14800;48.174;9.798;2023-03-01T16:53:10;7.20;67.20
27314;DHT22;14800;48.174;9.798;2023-03-01T16:55:36;7.10;67.10
27314;DHT22;14800;48.174;9.798;2023-03-01T16:58:03;7.10;67.10
27314;DHT22;14800;48.174;9.798;2023-03-01T17:00:29;7.10;67.10
27314;DHT22;14800;48.174;9.798;2023-03-01T17:02:55;7.10;67.10
27314;DHT22;14800;48.174;9.798;2023-03-01T17:05:20;7.00;67.10
27314;DHT22;14800;48.174;9.798;2023-03-01T17:07:48;7.00;67.10
27314;DHT22;14800;48.174;9.798;2023-03-01T17:10:14;7.00;67.10
27314;DHT22;14800;48.174;9.798;2023-03-01T17:12:40;6.90;67.20
27314;DHT22;14800;48.174;9.798;2023-03-01T17:15:06;7.00;67.30
27314;DHT22;14800;48.174;9.798;2023-03-01T17:17:32;6.90;68.20
27314;DHT22;14800;48.174;9.798;2023-03-01T17:19:57;6.90;67.40
27314;DHT22;14800;48.174;9.798;2023-03-01T17:22:23;6.90;67.50
27314;DHT22;14800;48.174;9.798;2023-03-01T17:24:49;6.90;67.60
27314;DHT22;14800;48.174;9.798;2023-03-01T17:27:14;6.80;67.60
27314;DHT22;14800;48.174;9.798;2023-03-01T17:29:40;6.80;67.60
27314;DHT22;14800;48.174;9.798;2023-03-01T17:32:07;6.80;67.60
27314;DHT22;14800;48.174;9.798;2023-03-01T17:34:33;6.80;67.60
27314;DHT22;14800;48.174;9.798;2023-03-01T17:36:59;6.80;67.70
27314;DHT22;14800;48.174;9.798;2023-03-01T17:39:25;6.80;67.70
27314;DHT22;14800;48.174;9.798;2023-03-01T17:41:55;6.80;67.70
27314;DHT22;14800;48.174;9.798;2023-03-01T17:44:20;6.70;67.60
27314;DHT22;14800;48.174;9.798;2023-03-01T17:46:46;6.70;67.60
27314;DHT22;14800;48.174;9.798;2023-03-01T17:49:12;6.70;67.60
27314;DHT22;14800;48.174;9.798;2023-03-01T17:51:38;6.70;67.70
27314;DHT22;14800;48.174;9.798;2023-03-01T17:54:03;6.70;67.80
27314;DHT22;14800;48.174;9.798;2023-03-01T17:56:29;6.70;67.90
27314;DHT22;14800;48.174;9.798;2023-03-01T17:58:56;6.70;68.00
27314;DHT22;14800;48.174;9.798;2023-03-01T18:01:22;6.70;68.00
27314;DHT22;14800;48.174;9.798;2023-03-01T18:03:50;6.60;67.90
27314;DHT22;14800;48.174;9.798;2023-03-01T18:06:21;6.60;67.90
27314;DHT22;14800;48.174;9.798;2023-03-01T18:08:47;6.70;68.10
27314;DHT22;14800;48.174;9.798;2023-03-01T18:11:15;6.60;68.00
27314;DHT22;14800;48.174;9.798;2023-03-01T18:13:41;6.60;68.10
27314;DHT22;14800;48.174;9.798;2023-03-01T18:16:12;6.60;68.10